createdAt,value
2018-12-13T00:04:44.354Z,-1.20
2018-12-13T00:09:47.890Z,-1.20
2018-12-13T00:14:53.008Z,-1.30
2018-12-13T00:19:57.926Z,-1.30
2018-12-13T00:25:02.145Z,-1.30
2018-12-13T00:30:06.980Z,-1.40
2018-12-13T00:35:10.582Z,-1.30
2018-12-13T00:40:14.066Z,-1.20
2018-12-13T00:45:18.461Z,-1.10
2018-12-13T00:50:23.256Z,-1.00
2018-12-13T00:55:26.928Z,-1.00
2018-12-13T01:00:32.006Z,-1.00
2018-12-13T01:05:36.904Z,-0.90
2018-12-13T01:10:42.037Z,-0.90
2018-12-13T01:15:47.166Z,-0.80
2018-12-13T01:20:52.281Z,-0.70
2018-12-13T01:25:57.580Z,-0.60
2018-12-13T01:31:01.110Z,-0.50
2018-12-13T01:36:06.217Z,-0.40
2018-12-13T01:41:09.902Z,-0.40
2018-12-13T01:46:13.506Z,-0.40
2018-12-13T01:51:17.376Z,-0.40
2018-12-13T01:56:20.852Z,-0.40
2018-12-13T02:01:28.276Z,-0.30
2018-12-13T02:06:33.511Z,-0.30
2018-12-13T02:11:38.240Z,-0.30
2018-12-13T02:16:42.962Z,-0.30
2018-12-13T02:21:47.770Z,-0.30
2018-12-13T02:26:52.575Z,-0.30
2018-12-13T02:31:57.495Z,-0.30
2018-12-13T02:37:05.874Z,-0.40
2018-12-13T02:42:09.232Z,-0.40
2018-12-13T02:47:14.687Z,-0.40
2018-12-13T02:52:19.124Z,-0.40
2018-12-13T02:57:24.157Z,-0.40
2018-12-13T03:02:27.676Z,-0.40
2018-12-13T03:07:32.494Z,-0.50
2018-12-13T03:12:37.317Z,-0.70
2018-12-13T03:17:42.229Z,-0.90
2018-12-13T03:22:46.645Z,-1.00
2018-12-13T03:27:50.868Z,-1.20
2018-12-13T03:32:55.784Z,-1.30
2018-12-13T03:38:00.133Z,-1.40
2018-12-13T03:43:04.962Z,-1.50
2018-12-13T03:48:08.480Z,-1.50
2018-12-13T03:53:13.138Z,-1.50
2018-12-13T03:58:18.239Z,-1.30
2018-12-13T04:03:22.635Z,-1.20
2018-12-13T04:08:26.136Z,-1.20
2018-12-13T04:13:30.614Z,-1.10
2018-12-13T04:18:35.436Z,-1.20
2018-12-13T04:23:40.166Z,-1.10
2018-12-13T04:28:43.694Z,-1.20
2018-12-13T04:33:48.506Z,-1.20
2018-12-13T04:38:53.338Z,-1.30
2018-12-13T04:43:57.495Z,-1.30
2018-12-13T04:49:02.214Z,-1.10
2018-12-13T04:54:07.060Z,-1.00
2018-12-13T04:59:11.922Z,-1.20
2018-12-13T05:04:16.469Z,-1.10
2018-12-13T05:09:21.570Z,-1.00
2018-12-13T05:14:26.664Z,-0.90
2018-12-13T05:19:31.745Z,-0.90
2018-12-13T05:24:36.612Z,-0.90
2018-12-13T05:29:41.475Z,-0.80
2018-12-13T05:34:46.576Z,-0.80
2018-12-13T05:39:51.182Z,-0.80
2018-12-13T05:44:56.283Z,-0.90
2018-12-13T05:50:01.043Z,-0.80
2018-12-13T05:55:06.122Z,-0.90
2018-12-13T06:00:11.307Z,-0.90
2018-12-13T06:05:14.949Z,-0.80
2018-12-13T06:10:18.534Z,-0.90
2018-12-13T06:15:22.788Z,-1.10
2018-12-13T06:20:27.383Z,-1.20
2018-12-13T06:25:32.092Z,-1.20
2018-12-13T06:30:36.903Z,-1.20
2018-12-13T06:35:41.436Z,-1.10
2018-12-13T06:40:46.180Z,-1.10
2018-12-13T06:45:50.846Z,-1.00
2018-12-13T06:50:55.476Z,-0.90
2018-12-13T06:56:00.245Z,-1.00
2018-12-13T07:01:04.940Z,-1.10
2018-12-13T07:06:09.420Z,-1.30
2018-12-13T07:11:14.821Z,-1.40
2018-12-13T07:16:19.535Z,-1.60
2018-12-13T07:21:25.008Z,-1.70
2018-12-13T07:26:30.037Z,-1.70
2018-12-13T07:31:34.585Z,-1.70
2018-12-13T07:36:39.653Z,-1.60
2018-12-13T07:41:44.153Z,-1.40
2018-12-13T07:46:48.699Z,-1.30
2018-12-13T07:51:53.313Z,-1.40
2018-12-13T07:56:56.699Z,-1.40
2018-12-13T08:02:01.023Z,-1.30
2018-12-13T08:07:06.134Z,-1.20
2018-12-13T08:12:09.999Z,-1.20
2018-12-13T08:17:14.636Z,-1.10
2018-12-13T08:22:19.636Z,-0.90
2018-12-13T08:27:24.158Z,-0.70
2018-12-13T08:32:28.955Z,-0.60
2018-12-13T08:37:33.054Z,-0.40
2018-12-13T08:42:37.629Z,0.10
2018-12-13T08:47:42.431Z,0.30
2018-12-13T08:52:48.066Z,0.60
2018-12-13T08:57:52.397Z,0.50
2018-12-13T09:02:55.912Z,0.70
2018-12-13T09:08:00.696Z,0.80
2018-12-13T09:13:05.811Z,0.40
2018-12-13T09:18:10.473Z,0.40
2018-12-13T09:23:14.685Z,0.60
2018-12-13T09:28:19.403Z,1.00
2018-12-13T09:33:23.088Z,1.00
2018-12-13T09:38:29.660Z,1.00
2018-12-13T09:43:33.741Z,1.20
2018-12-13T09:48:38.389Z,1.40
2018-12-13T09:53:43.009Z,1.80
2018-12-13T09:58:47.831Z,2.00
2018-12-13T10:03:52.379Z,2.20
2018-12-13T10:08:56.087Z,2.70
2018-12-13T10:14:00.658Z,4.80
2018-12-13T10:19:05.787Z,5.60
2018-12-13T10:24:09.586Z,4.90
2018-12-13T10:29:15.109Z,3.50
2018-12-13T10:34:20.024Z,3.00
2018-12-13T10:39:24.055Z,2.70
2018-12-13T10:44:35.302Z,2.70
2018-12-13T10:49:38.913Z,2.80
2018-12-13T10:54:42.529Z,4.90
2018-12-13T10:59:47.467Z,5.20
2018-12-13T11:04:52.206Z,4.30
2018-12-13T11:09:57.226Z,3.40
2018-12-13T11:15:00.686Z,2.80
2018-12-13T11:20:05.825Z,2.50
2018-12-13T11:25:09.395Z,2.50
2018-12-13T11:30:23.508Z,2.40
2018-12-13T11:35:29.355Z,2.40
2018-12-13T11:40:33.864Z,2.30
2018-12-13T11:45:39.425Z,2.40
2018-12-13T11:50:42.973Z,2.30
2018-12-13T11:56:13.188Z,2.60
2018-12-13T12:01:18.372Z,2.40
2018-12-13T12:06:23.689Z,2.40
2018-12-13T12:11:28.818Z,2.40
2018-12-13T12:16:33.268Z,2.40
2018-12-13T12:21:37.696Z,2.40
2018-12-13T12:26:42.236Z,2.40
2018-12-13T12:32:06.217Z,2.90
2018-12-13T12:37:09.919Z,3.30
2018-12-13T12:42:14.940Z,2.60
2018-12-13T12:47:18.904Z,2.40
2018-12-13T12:52:23.442Z,2.50
2018-12-13T12:57:29.141Z,2.30
2018-12-13T13:02:33.003Z,2.10
2018-12-13T13:07:38.064Z,2.10
2018-12-13T13:12:41.690Z,2.00
2018-12-13T13:17:45.354Z,1.90
2018-12-13T13:22:50.072Z,2.00
2018-12-13T13:27:54.774Z,1.90
2018-12-13T13:32:59.407Z,1.90
2018-12-13T13:38:03.692Z,1.80
2018-12-13T13:43:07.590Z,2.00
2018-12-13T13:48:11.292Z,2.30
2018-12-13T13:53:15.297Z,2.40
2018-12-13T13:58:20.365Z,2.30
2018-12-13T14:03:25.497Z,2.00
2018-12-13T14:08:30.545Z,1.90
2018-12-13T14:13:34.973Z,1.90
2018-12-13T14:18:40.033Z,1.80
2018-12-13T14:23:44.992Z,1.60
2018-12-13T14:28:48.576Z,1.50
2018-12-13T14:33:52.648Z,1.60
2018-12-13T14:38:57.766Z,1.60
2018-12-13T14:44:01.921Z,1.60
2018-12-13T14:49:07.013Z,1.60
2018-12-13T14:54:10.600Z,1.60
2018-12-13T14:59:15.384Z,1.50
2018-12-13T15:04:19.690Z,1.50
2018-12-13T15:09:24.700Z,1.40
2018-12-13T15:14:29.589Z,1.40
2018-12-13T15:19:35.421Z,1.10
2018-12-13T15:24:39.856Z,1.00
2018-12-13T15:29:44.225Z,0.80
2018-12-13T15:34:49.035Z,0.70
2018-12-13T15:39:57.259Z,0.40
2018-12-13T15:44:58.467Z,0.20
2018-12-13T15:50:04.375Z,0.10
2018-12-13T15:55:07.994Z,0.10
2018-12-13T16:00:11.657Z,0.10
2018-12-13T16:05:15.386Z,0.00
2018-12-13T16:10:19.265Z,0.00
2018-12-13T16:15:22.889Z,-0.10
2018-12-13T16:20:27.983Z,-0.20
2018-12-13T16:25:32.691Z,-0.30
2018-12-13T16:30:37.685Z,-0.30
2018-12-13T16:35:42.483Z,-0.40
2018-12-13T16:40:46.977Z,-0.30
2018-12-13T16:45:50.795Z,-0.40
2018-12-13T16:50:55.511Z,-0.40
2018-12-13T16:56:02.556Z,-0.50
2018-12-13T17:01:07.445Z,-0.50
2018-12-13T17:06:12.103Z,-0.50
2018-12-13T17:11:16.812Z,-0.50
2018-12-13T17:16:21.291Z,-0.50
2018-12-13T17:21:26.372Z,-0.50
2018-12-13T17:26:31.066Z,-0.50
2018-12-13T17:31:35.570Z,-0.50
2018-12-13T17:36:40.676Z,-0.50
2018-12-13T17:41:45.594Z,-0.50
2018-12-13T17:46:50.698Z,-0.60
2018-12-13T17:51:55.830Z,-0.60
2018-12-13T17:57:00.916Z,-0.50
2018-12-13T18:02:04.515Z,-0.60
2018-12-13T18:07:09.348Z,-0.70
2018-12-13T18:12:13.924Z,-0.70
2018-12-13T18:17:19.687Z,-0.70
2018-12-13T18:22:24.750Z,-0.70
2018-12-13T18:27:28.818Z,-0.80
2018-12-13T18:32:33.910Z,-0.80
2018-12-13T18:37:38.642Z,-0.80
2018-12-13T18:42:43.964Z,-0.80
2018-12-13T18:47:49.089Z,-0.90
2018-12-13T18:52:54.010Z,-0.90
2018-12-13T18:57:58.568Z,-0.90
2018-12-13T19:03:02.967Z,-0.90
2018-12-13T19:08:07.671Z,-0.80
2018-12-13T19:13:12.693Z,-0.80
2018-12-13T19:18:17.776Z,-0.80
2018-12-13T19:23:22.893Z,-0.90
2018-12-13T19:28:27.983Z,-0.90
2018-12-13T19:33:31.553Z,-1.00
2018-12-13T19:38:36.172Z,-1.00
2018-12-13T19:43:41.088Z,-1.20
2018-12-13T19:48:46.225Z,-1.10
2018-12-13T19:53:50.914Z,-1.20
2018-12-13T19:58:56.002Z,-1.20
2018-12-13T20:04:01.152Z,-1.10
2018-12-13T20:09:05.842Z,-1.20
2018-12-13T20:14:10.551Z,-1.20
2018-12-13T20:19:15.009Z,-1.10
2018-12-13T20:24:20.073Z,-1.20
2018-12-13T20:29:25.187Z,-1.10
2018-12-13T20:34:29.155Z,-1.00
2018-12-13T20:39:34.247Z,-1.00
2018-12-13T20:44:39.213Z,-0.90
2018-12-13T20:49:43.263Z,-0.90
2018-12-13T20:54:48.407Z,-0.90
2018-12-13T20:59:53.248Z,-0.90
2018-12-13T21:04:58.078Z,-0.80
2018-12-13T21:10:03.275Z,-0.90
2018-12-13T21:15:07.381Z,-0.80
2018-12-13T21:20:10.990Z,-0.80
2018-12-13T21:25:14.568Z,-0.80
2018-12-13T21:30:18.376Z,-0.80
2018-12-13T21:35:21.992Z,-0.90
2018-12-13T21:40:26.285Z,-0.90
2018-12-13T21:45:31.052Z,-1.00
2018-12-13T21:50:36.167Z,-1.10
2018-12-13T21:55:40.654Z,-1.20
2018-12-13T22:00:45.776Z,-1.30
2018-12-13T22:05:50.903Z,-1.30
2018-12-13T22:10:55.992Z,-1.40
2018-12-13T22:16:00.315Z,-1.40
2018-12-13T22:21:04.520Z,-1.50
2018-12-13T22:26:09.147Z,-1.50
2018-12-13T22:31:14.265Z,-1.60
2018-12-13T22:36:18.423Z,-1.50
2018-12-13T22:41:26.394Z,-1.60
2018-12-13T22:46:30.205Z,-1.60
2018-12-13T22:51:36.015Z,-1.60
2018-12-13T22:56:40.046Z,-1.70
2018-12-13T23:01:44.228Z,-1.60
2018-12-13T23:06:48.168Z,-1.70
2018-12-13T23:11:51.979Z,-1.80
2018-12-13T23:17:13.461Z,-1.80
2018-12-13T23:22:17.250Z,-1.80
2018-12-13T23:27:22.457Z,-1.90
2018-12-13T23:32:26.176Z,-1.90
2018-12-13T23:37:30.048Z,-1.90
2018-12-13T23:42:33.811Z,-1.90
2018-12-13T23:47:37.730Z,-2.00
2018-12-13T23:52:41.909Z,-1.90
2018-12-13T23:57:45.577Z,-2.00
